createdAt,value
2023-05-05T00:02:01.774Z,101588.66
2023-05-05T00:04:36.408Z,101588.56
2023-05-05T00:07:09.145Z,101591.25
2023-05-05T00:09:35.781Z,101585.06
2023-05-05T00:12:05.325Z,101584.06
2023-05-05T00:14:31.906Z,101580.47
2023-05-05T00:16:58.471Z,101575.22
2023-05-05T00:19:25.030Z,101572.63
2023-05-05T00:21:59.333Z,101563.59
2023-05-05T00:24:26.193Z,101563.56
2023-05-05T00:26:59.042Z,101560.00
2023-05-05T00:29:25.617Z,101563.56
2023-05-05T00:31:52.237Z,101558.22
2023-05-05T00:34:18.786Z,101553.69
2023-05-05T00:36:45.382Z,101546.59
2023-05-05T00:39:12.702Z,101559.19
2023-05-05T00:41:42.536Z,101546.63
2023-05-05T00:44:09.127Z,101550.16
2023-05-05T00:46:35.913Z,101543.91
2023-05-05T00:49:02.711Z,101540.38
2023-05-05T00:51:31.929Z,101543.91
2023-05-05T00:53:58.504Z,101543.06
2023-05-05T00:56:27.367Z,101542.19
2023-05-05T00:58:56.928Z,101535.09
2023-05-05T01:01:27.895Z,101537.75
2023-05-05T01:03:58.888Z,101529.66
2023-05-05T01:07:03.985Z,101522.56
2023-05-05T01:09:52.311Z,101531.47
2023-05-05T01:12:26.168Z,101527.84
2023-05-05T01:15:33.779Z,101514.53
2023-05-05T01:18:14.716Z,101510.97
2023-05-05T01:20:54.902Z,101502.03
2023-05-05T01:23:33.360Z,101504.66
2023-05-05T01:26:20.087Z,101487.69
2023-05-05T01:29:04.688Z,101496.63
2023-05-05T01:31:54.507Z,101499.31
2023-05-05T01:34:25.290Z,101480.44
2023-05-05T01:37:02.631Z,101487.72
2023-05-05T01:39:31.802Z,101491.25
2023-05-05T01:42:05.974Z,101489.47
2023-05-05T01:44:38.870Z,101486.78
2023-05-05T01:47:09.535Z,101481.47
2023-05-05T01:49:37.083Z,101476.88
2023-05-05T01:52:08.345Z,101474.28
2023-05-05T01:54:39.855Z,101461.75
2023-05-05T01:57:07.681Z,101457.31
2023-05-05T01:59:34.385Z,101454.63
2023-05-05T02:02:02.042Z,101449.34
2023-05-05T02:04:29.810Z,101463.63
2023-05-05T02:06:57.144Z,101464.50
2023-05-05T02:09:25.577Z,101461.00
2023-05-05T02:11:56.523Z,101474.38
2023-05-05T02:14:24.509Z,101462.72
2023-05-05T02:16:51.434Z,101465.44
2023-05-05T02:19:19.555Z,101457.31
2023-05-05T02:21:47.817Z,101461.75
2023-05-05T02:24:18.751Z,101452.81
2023-05-05T02:26:46.131Z,101451.25
2023-05-05T02:29:36.899Z,101447.53
2023-05-05T02:32:21.041Z,101465.53
2023-05-05T02:34:51.152Z,101463.75
2023-05-05T02:37:20.260Z,101453.00
2023-05-05T02:40:00.907Z,101442.44
2023-05-05T02:42:39.108Z,101436.97
2023-05-05T02:45:13.051Z,101431.50
2023-05-05T02:47:45.332Z,101438.75
2023-05-05T02:50:13.366Z,101448.59
2023-05-05T02:52:46.481Z,101445.03
2023-05-05T02:55:15.950Z,101434.25
2023-05-05T02:57:59.480Z,101437.91
2023-05-05T03:00:47.581Z,101435.13
2023-05-05T03:03:55.896Z,101420.78
2023-05-05T03:06:22.997Z,101417.34
2023-05-05T03:08:54.719Z,101422.63
2023-05-05T03:11:29.401Z,101424.47
2023-05-05T03:14:10.262Z,101428.03
2023-05-05T03:16:38.610Z,101438.94
2023-05-05T03:19:05.692Z,101450.47
2023-05-05T03:21:33.378Z,101454.03
2023-05-05T03:23:59.994Z,101458.53
2023-05-05T03:26:26.793Z,101465.69
2023-05-05T03:28:53.358Z,101471.97
2023-05-05T03:31:19.975Z,101461.22
2023-05-05T03:33:50.359Z,101475.66
2023-05-05T03:36:17.038Z,101475.53
2023-05-05T03:38:43.579Z,101480.06
2023-05-05T03:41:11.424Z,101486.28
2023-05-05T03:43:41.372Z,101495.28
2023-05-05T03:46:08.113Z,101512.31
2023-05-05T03:48:34.709Z,101515.97
2023-05-05T03:51:01.339Z,101517.69
2023-05-05T03:53:27.963Z,101516.00
2023-05-05T03:55:54.502Z,101521.34
2023-05-05T03:58:21.070Z,101532.06
2023-05-05T04:00:47.711Z,101532.06
2023-05-05T04:03:14.379Z,101540.16
2023-05-05T04:05:41.040Z,101544.63
2023-05-05T04:08:07.687Z,101546.44
2023-05-05T04:10:34.335Z,101557.97
2023-05-05T04:13:03.498Z,101550.06
2023-05-05T04:15:30.291Z,101555.34
2023-05-05T04:17:56.899Z,101559.84
2023-05-05T04:20:23.625Z,101565.22
2023-05-05T04:22:52.735Z,101559.91
2023-05-05T04:25:19.870Z,101561.63
2023-05-05T04:27:47.070Z,101541.13
2023-05-05T04:30:13.755Z,101559.00
2023-05-05T04:32:40.358Z,101548.25
2023-05-05T04:35:07.814Z,101543.81
2023-05-05T04:37:35.923Z,101543.09
2023-05-05T04:40:02.506Z,101554.63
2023-05-05T04:42:29.168Z,101546.50
2023-05-05T04:44:55.775Z,101532.22
2023-05-05T04:47:22.626Z,101524.25
2023-05-05T04:49:52.056Z,101519.69
2023-05-05T04:52:18.633Z,101526.81
2023-05-05T04:54:45.203Z,101527.78
2023-05-05T04:57:11.763Z,101508.06
2023-05-05T04:59:38.338Z,101492.91
2023-05-05T05:02:08.010Z,101523.28
2023-05-05T05:04:34.563Z,101518.81
2023-05-05T05:07:01.594Z,101509.88
2023-05-05T05:09:28.175Z,101499.22
2023-05-05T05:11:58.577Z,101501.91
2023-05-05T05:14:25.586Z,101492.09
2023-05-05T05:16:52.424Z,101488.63
2023-05-05T05:19:19.223Z,101487.50
2023-05-05T05:21:45.792Z,101484.97
2023-05-05T05:24:13.188Z,101486.78
2023-05-05T05:26:40.512Z,101503.81
2023-05-05T05:29:07.229Z,101519.00
2023-05-05T05:31:34.506Z,101514.53
2023-05-05T05:34:01.203Z,101489.44
2023-05-05T05:36:27.744Z,101463.66
2023-05-05T05:38:55.916Z,101485.97
2023-05-05T05:41:22.495Z,101490.44
2023-05-05T05:43:49.054Z,101502.00
2023-05-05T05:46:15.637Z,101519.94
2023-05-05T05:48:42.240Z,101535.97
2023-05-05T05:51:08.833Z,101546.72
2023-05-05T05:53:35.685Z,101544.88
2023-05-05T05:56:02.246Z,101555.72
2023-05-05T05:58:31.081Z,101565.53
2023-05-05T06:00:59.589Z,101567.31
2023-05-05T06:03:26.761Z,101575.34
2023-05-05T06:05:53.510Z,101583.44
2023-05-05T06:08:20.076Z,101578.91
2023-05-05T06:10:49.742Z,101588.59
2023-05-05T06:13:16.498Z,101592.19
2023-05-05T06:15:43.152Z,101581.59
2023-05-05T06:18:09.793Z,101589.72
2023-05-05T06:20:36.446Z,101592.41
2023-05-05T06:23:06.060Z,101587.97
2023-05-05T06:25:32.658Z,101596.84
2023-05-05T06:28:00.103Z,101604.00
2023-05-05T06:30:26.863Z,101613.81
2023-05-05T06:32:54.367Z,101621.88
2023-05-05T06:35:22.092Z,101613.81
2023-05-05T06:37:48.638Z,101621.03
2023-05-05T06:40:15.240Z,101621.91
2023-05-05T06:42:41.870Z,101618.34
2023-05-05T06:45:08.829Z,101612.09
2023-05-05T06:47:36.085Z,101621.97
2023-05-05T06:50:02.745Z,101623.78
2023-05-05T06:52:29.337Z,101613.94
2023-05-05T06:54:55.938Z,101620.19
2023-05-05T06:57:22.500Z,101619.25
2023-05-05T06:59:49.074Z,101620.16
2023-05-05T07:02:15.719Z,101609.41
2023-05-05T07:04:44.276Z,101617.47
2023-05-05T07:07:10.875Z,101620.13
2023-05-05T07:09:37.455Z,101610.34
2023-05-05T07:12:04.474Z,101612.13
2023-05-05T07:14:31.080Z,101614.78
2023-05-05T07:16:57.878Z,101605.84
2023-05-05T07:19:24.682Z,101609.41
2023-05-05T07:21:52.106Z,101613.03
2023-05-05T07:24:18.752Z,101608.53
2023-05-05T07:26:45.338Z,101612.06
2023-05-05T07:29:13.485Z,101610.28
2023-05-05T07:31:40.126Z,101608.47
2023-05-05T07:34:06.688Z,101614.72
2023-05-05T07:36:33.266Z,101605.69
2023-05-05T07:39:00.553Z,101612.94
2023-05-05T07:41:27.129Z,101615.59
2023-05-05T07:43:53.694Z,101616.53
2023-05-05T07:46:20.380Z,101631.69
2023-05-05T07:48:47.143Z,101617.38
2023-05-05T07:51:13.754Z,101620.97
2023-05-05T07:53:41.142Z,101630.81
2023-05-05T07:56:08.852Z,101625.41
2023-05-05T07:58:35.567Z,101619.19
2023-05-05T08:01:02.765Z,101624.41
2023-05-05T08:03:29.567Z,101616.34
2023-05-05T08:05:57.295Z,101632.47
2023-05-05T08:08:25.060Z,101629.63
2023-05-05T08:10:53.215Z,101637.72
2023-05-05T08:13:20.158Z,101640.47
2023-05-05T08:15:46.938Z,101639.56
2023-05-05T08:18:14.498Z,101632.38
2023-05-05T08:20:41.284Z,101632.41
2023-05-05T08:23:07.919Z,101640.44
2023-05-05T08:25:34.460Z,101635.94
2023-05-05T08:28:03.682Z,101628.69
2023-05-05T08:30:30.755Z,101633.13
2023-05-05T08:32:57.525Z,101624.13
2023-05-05T08:35:24.354Z,101630.25
2023-05-05T08:37:51.770Z,101632.09
2023-05-05T08:40:18.398Z,101636.59
2023-05-05T08:42:45.762Z,101637.38
2023-05-05T08:45:12.720Z,101633.88
2023-05-05T08:47:39.721Z,101630.16
2023-05-05T08:50:06.941Z,101630.22
2023-05-05T08:52:40.289Z,101630.16
2023-05-05T08:55:13.517Z,101630.97
2023-05-05T08:57:56.932Z,101639.91
2023-05-05T09:00:24.831Z,101630.06
2023-05-05T09:02:51.746Z,101632.66
2023-05-05T09:05:18.517Z,101630.03
2023-05-05T09:07:45.248Z,101634.47
2023-05-05T09:10:12.555Z,101636.19
2023-05-05T09:12:40.527Z,101634.38
2023-05-05T09:15:11.656Z,101631.69
2023-05-05T09:17:39.203Z,101619.13
2023-05-05T09:20:07.394Z,101626.28
2023-05-05T09:22:46.195Z,101622.63
2023-05-05T09:25:17.112Z,101617.25
2023-05-05T09:27:49.873Z,101623.44
2023-05-05T09:30:18.226Z,101620.81
2023-05-05T09:32:45.016Z,101620.69
2023-05-05T09:35:11.699Z,101619.75
2023-05-05T09:37:38.723Z,101618.88
2023-05-05T09:40:07.369Z,101634.06
2023-05-05T09:42:35.245Z,101630.34
2023-05-05T09:45:01.808Z,101631.19
2023-05-05T09:47:35.653Z,101641.03
2023-05-05T09:50:02.955Z,101640.97
2023-05-05T09:52:30.456Z,101638.44
2023-05-05T09:54:57.325Z,101639.41
2023-05-05T09:57:33.988Z,101638.50
2023-05-05T10:00:01.943Z,101637.69
2023-05-05T10:02:35.573Z,101636.72
2023-05-05T10:05:05.262Z,101635.81
2023-05-05T10:07:31.915Z,101643.81
2023-05-05T10:10:00.218Z,101643.66
2023-05-05T10:12:28.119Z,101637.25
2023-05-05T10:14:56.187Z,101634.50
2023-05-05T10:17:23.441Z,101640.72
2023-05-05T10:19:57.300Z,101636.13
2023-05-05T10:22:24.714Z,101637.88
2023-05-05T10:25:02.597Z,101630.72
2023-05-05T10:27:33.970Z,101624.41
2023-05-05T10:30:20.164Z,101617.28
2023-05-05T10:33:14.178Z,101620.88
2023-05-05T10:35:52.760Z,101612.69
2023-05-05T10:38:19.959Z,101615.28
2023-05-05T10:40:49.759Z,101613.50
2023-05-05T10:43:16.880Z,101612.66
2023-05-05T10:45:58.901Z,101607.19
2023-05-05T10:48:39.609Z,101609.06
2023-05-05T10:51:40.002Z,101605.50
2023-05-05T10:54:23.642Z,101609.09
2023-05-05T10:56:51.213Z,101603.97
2023-05-05T10:59:36.706Z,101611.81
2023-05-05T11:02:30.754Z,101608.16
2023-05-05T11:05:06.998Z,101603.72
2023-05-05T11:07:34.553Z,101601.91
2023-05-05T11:10:04.000Z,101600.16
2023-05-05T11:12:31.910Z,101605.59
2023-05-05T11:15:26.641Z,101601.91
2023-05-05T11:18:06.773Z,101595.59
2023-05-05T11:20:37.093Z,101596.53
2023-05-05T11:23:03.636Z,101590.13
2023-05-05T11:25:43.465Z,101595.41
2023-05-05T11:28:14.977Z,101589.13
2023-05-05T11:30:57.152Z,101583.69
2023-05-05T11:33:28.450Z,101582.88
2023-05-05T11:36:05.809Z,101578.34
2023-05-05T11:38:36.091Z,101579.16
2023-05-05T11:41:35.730Z,101576.53
2023-05-05T11:44:12.468Z,101577.34
2023-05-05T11:46:40.823Z,101576.28
2023-05-05T11:49:09.256Z,101570.88
2023-05-05T11:51:38.772Z,101568.19
2023-05-05T11:54:05.359Z,101579.78
2023-05-05T11:56:31.903Z,101584.28
2023-05-05T11:59:09.986Z,101576.97
2023-05-05T12:01:41.043Z,101581.56
2023-05-05T12:04:14.581Z,101573.44
2023-05-05T12:06:41.535Z,101574.41
2023-05-05T12:09:22.470Z,101570.69
2023-05-05T12:11:53.696Z,101575.91
2023-05-05T12:14:40.880Z,101577.97
2023-05-05T12:17:08.519Z,101576.19
2023-05-05T12:19:47.242Z,101569.81
2023-05-05T12:22:24.129Z,101578.88
2023-05-05T12:25:02.864Z,101572.56
2023-05-05T12:27:29.531Z,101576.25
2023-05-05T12:29:57.591Z,101572.72
2023-05-05T12:32:33.201Z,101579.78
2023-05-05T12:35:00.698Z,101576.25
2023-05-05T12:37:27.723Z,101569.91
2023-05-05T12:39:55.121Z,101576.19
2023-05-05T12:42:24.336Z,101583.31
2023-05-05T12:44:52.980Z,101587.84
2023-05-05T12:47:36.862Z,101591.28
2023-05-05T12:50:13.486Z,101592.19
2023-05-05T12:53:03.287Z,101593.03
2023-05-05T12:55:40.096Z,101587.63
2023-05-05T12:58:06.754Z,101591.22
2023-05-05T13:00:33.331Z,101594.00
2023-05-05T13:03:00.006Z,101588.56
2023-05-05T13:05:36.126Z,101592.09
2023-05-05T13:08:05.317Z,101596.66
2023-05-05T13:10:31.934Z,101595.72
2023-05-05T13:12:59.748Z,101588.56
2023-05-05T13:15:29.654Z,101591.28
2023-05-05T13:18:00.770Z,101601.16
2023-05-05T13:20:27.510Z,101592.09
2023-05-05T13:22:57.510Z,101594.81
2023-05-05T13:25:29.577Z,101589.41
2023-05-05T13:27:56.133Z,101587.63
2023-05-05T13:30:23.925Z,101592.06
2023-05-05T13:32:53.580Z,101592.09
2023-05-05T13:35:22.706Z,101600.19
2023-05-05T13:37:49.342Z,101594.81
2023-05-05T13:40:15.997Z,101588.50
2023-05-05T13:42:42.601Z,101595.66
2023-05-05T13:45:11.675Z,101591.31
2023-05-05T13:47:39.224Z,101594.91
2023-05-05T13:50:06.633Z,101599.47
2023-05-05T13:52:42.454Z,101585.06
2023-05-05T13:55:09.667Z,101592.22
2023-05-05T13:57:40.713Z,101592.22
2023-05-05T14:00:11.680Z,101601.28
2023-05-05T14:02:38.247Z,101603.09
2023-05-05T14:05:05.097Z,101598.63
2023-05-05T14:07:32.702Z,101600.44
2023-05-05T14:09:59.257Z,101600.38
2023-05-05T14:12:27.190Z,101593.28
2023-05-05T14:15:03.865Z,101598.69
2023-05-05T14:17:33.265Z,101601.38
2023-05-05T14:20:05.985Z,101603.22
2023-05-05T14:22:35.306Z,101600.56
2023-05-05T14:25:01.883Z,101608.63
2023-05-05T14:27:30.752Z,101615.78
2023-05-05T14:32:43.739Z,101622.97
2023-05-05T14:35:10.509Z,101627.44
2023-05-05T14:40:20.620Z,101633.72
2023-05-05T14:42:47.169Z,101639.16
2023-05-05T14:45:13.716Z,101650.84
2023-05-05T14:47:40.443Z,101649.97
2023-05-05T14:50:09.707Z,101658.94
2023-05-05T14:52:39.060Z,101664.25
2023-05-05T14:55:06.786Z,101674.22
2023-05-05T14:57:33.371Z,101669.78
2023-05-05T14:59:59.942Z,101674.25
2023-05-05T15:02:48.190Z,101665.31
2023-05-05T15:05:15.038Z,101661.72
2023-05-05T15:07:41.704Z,101663.50
2023-05-05T15:10:08.624Z,101671.59
2023-05-05T15:12:35.262Z,101676.09
2023-05-05T15:15:01.890Z,101660.84
2023-05-05T15:17:28.706Z,101667.09
2023-05-05T15:19:55.315Z,101675.09
2023-05-05T15:22:21.915Z,101675.09
2023-05-05T15:24:53.201Z,101672.47
2023-05-05T15:27:19.826Z,101680.47
2023-05-05T15:29:46.535Z,101669.81
2023-05-05T15:32:13.141Z,101675.16
2023-05-05T15:34:39.765Z,101669.81
2023-05-05T15:37:06.332Z,101669.81
2023-05-05T15:39:32.898Z,101672.53
2023-05-05T15:42:03.676Z,101668.94
2023-05-05T15:44:30.648Z,101668.03
2023-05-05T15:46:57.332Z,101662.66
2023-05-05T15:49:29.996Z,101666.28
2023-05-05T15:52:01.662Z,101664.47
2023-05-05T15:54:28.230Z,101660.91
2023-05-05T15:57:04.879Z,101659.09
2023-05-05T15:59:31.617Z,101658.25
2023-05-05T16:01:58.200Z,101658.25
2023-05-05T16:04:24.757Z,101668.06
2023-05-05T16:06:51.421Z,101650.22
2023-05-05T16:09:17.976Z,101643.84
2023-05-05T16:11:44.713Z,101646.56
2023-05-05T16:14:11.335Z,101649.22
2023-05-05T16:16:37.988Z,101644.88
2023-05-05T16:19:04.806Z,101639.41
2023-05-05T16:21:31.559Z,101641.19
2023-05-05T16:23:58.170Z,101632.34
2023-05-05T16:26:24.879Z,101635.03
2023-05-05T16:28:52.248Z,101631.50
2023-05-05T16:31:18.932Z,101621.53
2023-05-05T16:33:45.770Z,101618.88
2023-05-05T16:36:12.811Z,101614.47
2023-05-05T16:38:40.245Z,101609.09
2023-05-05T16:41:07.167Z,101603.69
2023-05-05T16:43:34.100Z,101606.44
2023-05-05T16:46:00.764Z,101596.66
2023-05-05T16:48:27.358Z,101584.06
2023-05-05T16:50:56.111Z,101576.91
2023-05-05T16:53:23.458Z,101575.13
2023-05-05T16:55:51.817Z,101580.56
2023-05-05T16:58:22.879Z,101590.50
2023-05-05T17:00:50.335Z,101597.66
2023-05-05T17:03:17.515Z,101607.59
2023-05-05T17:05:46.219Z,101618.28
2023-05-05T17:08:14.726Z,101619.16
2023-05-05T17:10:42.194Z,101621.84
2023-05-05T17:13:09.411Z,101632.53
2023-05-05T17:15:36.940Z,101633.47
2023-05-05T17:18:04.544Z,101625.34
2023-05-05T17:20:31.269Z,101611.94
2023-05-05T17:22:57.892Z,101611.09
2023-05-05T17:25:27.762Z,101627.25
2023-05-05T17:27:55.092Z,101629.97
2023-05-05T17:30:22.153Z,101634.41
2023-05-05T17:32:48.862Z,101626.44
2023-05-05T17:35:19.249Z,101634.50
2023-05-05T17:37:48.181Z,101632.81
2023-05-05T17:40:14.733Z,101631.00
2023-05-05T17:42:41.354Z,101611.38
2023-05-05T17:45:08.853Z,101622.13
2023-05-05T17:47:38.449Z,101614.88
2023-05-05T17:50:05.446Z,101616.69
2023-05-05T17:52:31.994Z,101614.88
2023-05-05T17:54:58.595Z,101603.25
2023-05-05T17:57:25.146Z,101609.50
2023-05-05T17:59:55.661Z,101616.53
2023-05-05T18:02:22.372Z,101618.44
2023-05-05T18:04:49.003Z,101621.16
2023-05-05T18:07:15.631Z,101639.09
2023-05-05T18:09:42.412Z,101641.88
2023-05-05T18:12:09.869Z,101639.25
2023-05-05T18:14:36.722Z,101647.28
2023-05-05T18:17:04.640Z,101654.41
2023-05-05T18:19:31.305Z,101654.41
2023-05-05T18:22:03.649Z,101650.78
2023-05-05T18:24:30.779Z,101650.81
2023-05-05T18:26:58.306Z,101652.59
2023-05-05T18:29:25.465Z,101652.59
2023-05-05T18:31:53.503Z,101655.28
2023-05-05T18:34:22.212Z,101643.66
2023-05-05T18:36:51.042Z,101650.88
2023-05-05T18:39:17.902Z,101654.47
2023-05-05T18:41:44.506Z,101658.00
2023-05-05T18:44:11.214Z,101656.28
2023-05-05T18:46:39.544Z,101662.63
2023-05-05T18:49:06.386Z,101668.84
2023-05-05T18:51:33.046Z,101664.31
2023-05-05T18:54:00.895Z,101661.66
2023-05-05T18:56:27.697Z,101663.38
2023-05-05T18:58:54.277Z,101652.69
2023-05-05T19:01:20.978Z,101661.56
2023-05-05T19:03:48.162Z,101667.00
2023-05-05T19:06:18.033Z,101675.94
2023-05-05T19:08:45.582Z,101670.59
2023-05-05T19:11:18.347Z,101668.81
2023-05-05T19:13:47.647Z,101670.59
2023-05-05T19:16:20.583Z,101672.34
2023-05-05T19:18:47.173Z,101671.50
2023-05-05T19:21:13.786Z,101663.53
2023-05-05T19:23:42.813Z,101672.41
2023-05-05T19:26:12.503Z,101672.50
2023-05-05T19:28:41.657Z,101677.88
2023-05-05T19:31:08.471Z,101683.25
2023-05-05T19:33:37.679Z,101679.66
2023-05-05T19:36:04.448Z,101682.38
2023-05-05T19:38:30.996Z,101688.56
2023-05-05T19:40:57.568Z,101687.72
2023-05-05T19:43:24.110Z,101687.75
2023-05-05T19:45:50.718Z,101687.69
2023-05-05T19:48:17.332Z,101690.41
2023-05-05T19:50:43.882Z,101683.25
2023-05-05T19:53:10.467Z,101685.97
2023-05-05T19:55:37.443Z,101688.63
2023-05-05T19:58:07.694Z,101682.38
2023-05-05T20:00:34.319Z,101691.22
2023-05-05T20:03:01.064Z,101679.66
2023-05-05T20:05:28.898Z,101685.03
2023-05-05T20:07:55.519Z,101679.59
2023-05-05T20:10:27.566Z,101673.28
2023-05-05T20:15:21.014Z,101679.66
2023-05-05T20:17:48.272Z,101670.75
2023-05-05T20:20:20.461Z,101672.50
2023-05-05T20:22:51.036Z,101654.63
2023-05-05T20:27:46.494Z,101667.16
2023-05-05T20:30:21.652Z,101659.84
2023-05-05T20:32:49.782Z,101654.56
2023-05-05T20:35:19.395Z,101667.03
2023-05-05T20:37:49.032Z,101667.84
2023-05-05T20:40:15.652Z,101676.09
2023-05-05T20:42:42.202Z,101677.97
2023-05-05T20:45:11.869Z,101674.38
2023-05-05T20:47:38.525Z,101674.38
2023-05-05T20:50:17.789Z,101672.66
2023-05-05T20:52:48.519Z,101671.72
2023-05-05T20:55:23.248Z,101672.66
2023-05-05T20:57:49.815Z,101664.47
2023-05-05T21:00:16.521Z,101661.75
2023-05-05T21:02:43.264Z,101669.91
2023-05-05T21:05:10.029Z,101667.13
2023-05-05T21:07:40.474Z,101665.38
2023-05-05T21:10:07.826Z,101660.06
2023-05-05T21:12:37.592Z,101670.81
2023-05-05T21:15:04.491Z,101674.34
2023-05-05T21:17:31.075Z,101672.59
2023-05-05T21:19:58.873Z,101676.06
2023-05-05T21:22:36.894Z,101673.44
2023-05-05T21:25:18.691Z,101675.34
2023-05-05T21:27:46.174Z,101663.63
2023-05-05T21:30:14.803Z,101669.06
2023-05-05T21:32:43.002Z,101666.38
2023-05-05T21:35:10.196Z,101661.84
2023-05-05T21:37:38.625Z,101668.19
2023-05-05T21:40:07.291Z,101664.59
2023-05-05T21:42:37.687Z,101664.56
2023-05-05T21:45:04.582Z,101654.84
2023-05-05T21:47:31.306Z,101650.28
2023-05-05T21:49:58.667Z,101655.63
2023-05-05T21:52:25.217Z,101661.84
2023-05-05T21:54:53.375Z,101658.31
2023-05-05T21:57:20.002Z,101661.00
2023-05-05T21:59:46.634Z,101659.19
2023-05-05T22:02:13.228Z,101663.69
2023-05-05T22:04:39.786Z,101668.22
2023-05-05T22:07:06.493Z,101668.19
2023-05-05T22:09:33.073Z,101656.56
2023-05-05T22:11:59.683Z,101662.00
2023-05-05T22:14:26.257Z,101656.59
2023-05-05T22:16:52.826Z,101656.56
2023-05-05T22:19:19.411Z,101658.38
2023-05-05T22:21:46.131Z,101663.75
2023-05-05T22:24:12.730Z,101670.09
2023-05-05T22:26:43.740Z,101665.63
2023-05-05T22:29:10.815Z,101668.34
2023-05-05T22:31:37.592Z,101670.00
2023-05-05T22:34:04.342Z,101664.75
2023-05-05T22:36:31.472Z,101667.41
2023-05-05T22:38:58.101Z,101671.00
2023-05-05T22:41:24.828Z,101657.66
2023-05-05T22:43:51.411Z,101662.13
2023-05-05T22:46:18.001Z,101665.53
2023-05-05T22:48:44.550Z,101662.03
2023-05-05T22:51:11.338Z,101661.16
2023-05-05T22:53:38.700Z,101667.47
2023-05-05T22:56:06.288Z,101665.66
2023-05-05T22:58:32.850Z,101665.69
2023-05-05T23:00:59.643Z,101664.72
2023-05-05T23:03:26.344Z,101665.69
2023-05-05T23:05:52.919Z,101665.72
2023-05-05T23:08:21.294Z,101660.44
2023-05-05T23:10:47.849Z,101667.59
2023-05-05T23:13:14.468Z,101664.75
2023-05-05T23:15:41.243Z,101661.22
2023-05-05T23:18:07.894Z,101661.22
2023-05-05T23:20:36.162Z,101663.97
2023-05-05T23:23:07.305Z,101659.41
2023-05-05T23:25:33.902Z,101663.03
2023-05-05T23:28:00.481Z,101669.41
2023-05-05T23:30:27.087Z,101660.47
2023-05-05T23:32:55.046Z,101675.66
2023-05-05T23:35:21.802Z,101662.16
2023-05-05T23:37:48.730Z,101671.16
2023-05-05T23:40:15.309Z,101661.38
2023-05-05T23:42:41.907Z,101669.38
2023-05-05T23:45:09.459Z,101668.47
2023-05-05T23:47:36.216Z,101663.09
2023-05-05T23:50:03.422Z,101664.06
2023-05-05T23:52:30.046Z,101661.38
2023-05-05T23:54:56.655Z,101656.88
2023-05-05T23:57:23.247Z,101653.31
2023-05-05T23:59:49.803Z,101657.91
